sensor_id;sensor_type;location;lat;lon;timestamp;P1;P2;P0
49462;PMS5003;35357;51.722;0.500;2023-09-19T00:00:56;2;2;
49462;PMS5003;35357;51.722;0.500;2023-09-19T00:03:24;3;2;
49462;PMS5003;35357;51.722;0.500;2023-09-19T00:05:50;1;1;
49462;PMS5003;35357;51.722;0.500;2023-09-19T00:08:17;1;1;
49462;PMS5003;35357;51.722;0.500;2023-09-19T00:10:44;1;1;
49462;PMS5003;35357;51.722;0.500;2023-09-19T00:13:11;0;0;
49462;PMS5003;35357;51.722;0.500;2023-09-19T00:15:38;2;2;
49462;PMS5003;35357;51.722;0.500;2023-09-19T00:18:06;1;1;
49462;PMS5003;35357;51.722;0.500;2023-09-19T00:20:35;2;2;
49462;PMS5003;35357;51.722;0.500;2023-09-19T00:23:03;2;2;
49462;PMS5003;35357;51.722;0.500;2023-09-19T00:25:31;1;1;
49462;PMS5003;35357;51.722;0.500;2023-09-19T00:27:57;1;1;
49462;PMS5003;35357;51.722;0.500;2023-09-19T00:30:24;4;4;
49462;PMS5003;35357;51.722;0.500;2023-09-19T00:32:51;3;3;
49462;PMS5003;35357;51.722;0.500;2023-09-19T00:35:18;3;3;
49462;PMS5003;35357;51.722;0.500;2023-09-19T00:37:44;4;2;
49462;PMS5003;35357;51.722;0.500;2023-09-19T00:40:11;3;3;
49462;PMS5003;35357;51.722;0.500;2023-09-19T00:42:39;3;3;
49462;PMS5003;35357;51.722;0.500;2023-09-19T00:45:07;2;2;
49462;PMS5003;35357;51.722;0.500;2023-09-19T00:47:35;2;2;
49462;PMS5003;35357;51.722;0.500;2023-09-19T00:50:03;3;2;
49462;PMS5003;35357;51.722;0.500;2023-09-19T00:52:32;2;1;
49462;PMS5003;35357;51.722;0.500;2023-09-19T00:55:00;3;3;
49462;PMS5003;35357;51.722;0.500;2023-09-19T00:57:27;3;3;
49462;PMS5003;35357;51.722;0.500;2023-09-19T00:59:55;1;1;
49462;PMS5003;35357;51.722;0.500;2023-09-19T01:02:23;2;2;
49462;PMS5003;35357;51.722;0.500;2023-09-19T01:04:51;0;0;
49462;PMS5003;35357;51.722;0.500;2023-09-19T01:07:18;2;2;
49462;PMS5003;35357;51.722;0.500;2023-09-19T01:09:45;0;0;
49462;PMS5003;35357;51.722;0.500;2023-09-19T01:12:12;2;2;
49462;PMS5003;35357;51.722;0.500;2023-09-19T01:14:46;3;3;
49462;PMS5003;35357;51.722;0.500;2023-09-19T01:17:23;4;3;
49462;PMS5003;35357;51.722;0.500;2023-09-19T01:20:08;2;2;
49462;PMS5003;35357;51.722;0.500;2023-09-19T01:22:50;1;1;
49462;PMS5003;35357;51.722;0.500;2023-09-19T01:25:36;2;2;
49462;PMS5003;35357;51.722;0.500;2023-09-19T01:28:32;2;2;
49462;PMS5003;35357;51.722;0.500;2023-09-19T01:31:06;2;2;
49462;PMS5003;35357;51.722;0.500;2023-09-19T01:34:08;3;3;
49462;PMS5003;35357;51.722;0.500;2023-09-19T01:36:36;3;3;
49462;PMS5003;35357;51.722;0.500;2023-09-19T01:39:04;2;2;
49462;PMS5003;35357;51.722;0.500;2023-09-19T01:41:41;4;4;
49462;PMS5003;35357;51.722;0.500;2023-09-19T01:44:19;3;3;
49462;PMS5003;35357;51.722;0.500;2023-09-19T01:46:52;3;3;
49462;PMS5003;35357;51.722;0.500;2023-09-19T01:49:27;3;3;
49462;PMS5003;35357;51.722;0.500;2023-09-19T01:52:02;3;3;
49462;PMS5003;35357;51.722;0.500;2023-09-19T01:54:40;3;2;
49462;PMS5003;35357;51.722;0.500;2023-09-19T01:57:16;3;3;
49462;PMS5003;35357;51.722;0.500;2023-09-19T01:59:50;1;1;
49462;PMS5003;35357;51.722;0.500;2023-09-19T02:02:23;3;3;
49462;PMS5003;35357;51.722;0.500;2023-09-19T02:04:52;1;1;
49462;PMS5003;35357;51.722;0.500;2023-09-19T02:07:21;1;1;
49462;PMS5003;35357;51.722;0.500;2023-09-19T02:09:49;2;2;
49462;PMS5003;35357;51.722;0.500;2023-09-19T02:12:15;4;2;
49462;PMS5003;35357;51.722;0.500;2023-09-19T02:14:42;5;3;
49462;PMS5003;35357;51.722;0.500;2023-09-19T02:17:09;2;2;
49462;PMS5003;35357;51.722;0.500;2023-09-19T02:19:36;6;4;
49462;PMS5003;35357;51.722;0.500;2023-09-19T02:22:03;5;4;
49462;PMS5003;35357;51.722;0.500;2023-09-19T02:24:30;2;2;
49462;PMS5003;35357;51.722;0.500;2023-09-19T02:26:57;2;2;
49462;PMS5003;35357;51.722;0.500;2023-09-19T02:29:23;3;2;
49462;PMS5003;35357;51.722;0.500;2023-09-19T02:31:50;1;1;
49462;PMS5003;35357;51.722;0.500;2023-09-19T02:34:17;3;3;
49462;PMS5003;35357;51.722;0.500;2023-09-19T02:36:44;2;2;
49462;PMS5003;35357;51.722;0.500;2023-09-19T02:39:11;3;3;
49462;PMS5003;35357;51.722;0.500;2023-09-19T02:41:37;5;4;
49462;PMS5003;35357;51.722;0.500;2023-09-19T02:44:04;3;3;
49462;PMS5003;35357;51.722;0.500;2023-09-19T02:46:31;1;1;
49462;PMS5003;35357;51.722;0.500;2023-09-19T02:48:58;4;4;
49462;PMS5003;35357;51.722;0.500;2023-09-19T02:51:25;3;3;
49462;PMS5003;35357;51.722;0.500;2023-09-19T02:53:52;4;3;
49462;PMS5003;35357;51.722;0.500;2023-09-19T02:56:19;4;3;
49462;PMS5003;35357;51.722;0.500;2023-09-19T02:58:45;4;3;
49462;PMS5003;35357;51.722;0.500;2023-09-19T03:01:12;3;2;
49462;PMS5003;35357;51.722;0.500;2023-09-19T03:03:40;2;2;
49462;PMS5003;35357;51.722;0.500;2023-09-19T03:06:06;3;1;
49462;PMS5003;35357;51.722;0.500;2023-09-19T03:08:33;3;2;
49462;PMS5003;35357;51.722;0.500;2023-09-19T03:11:03;4;3;
49462;PMS5003;35357;51.722;0.500;2023-09-19T03:13:30;3;3;
49462;PMS5003;35357;51.722;0.500;2023-09-19T03:15:57;4;4;
49462;PMS5003;35357;51.722;0.500;2023-09-19T03:18:24;4;4;
49462;PMS5003;35357;51.722;0.500;2023-09-19T03:20:52;4;3;
49462;PMS5003;35357;51.722;0.500;2023-09-19T03:23:20;4;4;
49462;PMS5003;35357;51.722;0.500;2023-09-19T03:25:47;3;3;
49462;PMS5003;35357;51.722;0.500;2023-09-19T03:28:14;4;3;
49462;PMS5003;35357;51.722;0.500;2023-09-19T03:30:40;3;2;
49462;PMS5003;35357;51.722;0.500;2023-09-19T03:33:07;4;4;
49462;PMS5003;35357;51.722;0.500;2023-09-19T03:35:35;1;1;
49462;PMS5003;35357;51.722;0.500;2023-09-19T03:38:02;3;3;
49462;PMS5003;35357;51.722;0.500;2023-09-19T03:40:29;3;3;
49462;PMS5003;35357;51.722;0.500;2023-09-19T03:42:58;5;4;
49462;PMS5003;35357;51.722;0.500;2023-09-19T03:45:27;2;2;
49462;PMS5003;35357;51.722;0.500;2023-09-19T03:47:53;3;2;
49462;PMS5003;35357;51.722;0.500;2023-09-19T03:50:20;4;4;
49462;PMS5003;35357;51.722;0.500;2023-09-19T03:52:47;2;2;
49462;PMS5003;35357;51.722;0.500;2023-09-19T03:55:14;2;2;
49462;PMS5003;35357;51.722;0.500;2023-09-19T03:57:41;5;4;
49462;PMS5003;35357;51.722;0.500;2023-09-19T04:00:09;2;2;
49462;PMS5003;35357;51.722;0.500;2023-09-19T04:02:37;4;3;
49462;PMS5003;35357;51.722;0.500;2023-09-19T04:05:05;4;4;
49462;PMS5003;35357;51.722;0.500;2023-09-19T04:07:32;2;1;
49462;PMS5003;35357;51.722;0.500;2023-09-19T04:09:59;3;2;
49462;PMS5003;35357;51.722;0.500;2023-09-19T04:12:26;3;3;
49462;PMS5003;35357;51.722;0.500;2023-09-19T04:14:53;3;3;
49462;PMS5003;35357;51.722;0.500;2023-09-19T04:17:20;3;2;
49462;PMS5003;35357;51.722;0.500;2023-09-19T04:19:47;1;1;
49462;PMS5003;35357;51.722;0.500;2023-09-19T04:22:13;3;2;
49462;PMS5003;35357;51.722;0.500;2023-09-19T04:24:40;4;4;
49462;PMS5003;35357;51.722;0.500;2023-09-19T04:27:07;2;2;
49462;PMS5003;35357;51.722;0.500;2023-09-19T04:29:34;2;2;
49462;PMS5003;35357;51.722;0.500;2023-09-19T04:32:01;1;1;
49462;PMS5003;35357;51.722;0.500;2023-09-19T04:34:28;2;2;
49462;PMS5003;35357;51.722;0.500;2023-09-19T04:36:55;4;4;
49462;PMS5003;35357;51.722;0.500;2023-09-19T04:39:22;4;3;
49462;PMS5003;35357;51.722;0.500;2023-09-19T04:41:48;2;2;
49462;PMS5003;35357;51.722;0.500;2023-09-19T04:44:16;3;2;
49462;PMS5003;35357;51.722;0.500;2023-09-19T04:46:42;1;1;
49462;PMS5003;35357;51.722;0.500;2023-09-19T04:49:09;2;2;
49462;PMS5003;35357;51.722;0.500;2023-09-19T04:51:37;3;3;
49462;PMS5003;35357;51.722;0.500;2023-09-19T04:54:04;2;2;
49462;PMS5003;35357;51.722;0.500;2023-09-19T04:56:31;1;1;
49462;PMS5003;35357;51.722;0.500;2023-09-19T04:58:59;1;1;
49462;PMS5003;35357;51.722;0.500;2023-09-19T05:01:26;3;2;
49462;PMS5003;35357;51.722;0.500;2023-09-19T05:03:53;3;3;
49462;PMS5003;35357;51.722;0.500;2023-09-19T05:06:20;5;5;
49462;PMS5003;35357;51.722;0.500;2023-09-19T05:08:47;7;5;
49462;PMS5003;35357;51.722;0.500;2023-09-19T05:11:15;2;1;
49462;PMS5003;35357;51.722;0.500;2023-09-19T05:13:42;4;4;
49462;PMS5003;35357;51.722;0.500;2023-09-19T05:16:08;2;2;
49462;PMS5003;35357;51.722;0.500;2023-09-19T05:18:35;3;3;
49462;PMS5003;35357;51.722;0.500;2023-09-19T05:21:03;2;1;
49462;PMS5003;35357;51.722;0.500;2023-09-19T05:23:31;4;2;
49462;PMS5003;35357;51.722;0.500;2023-09-19T05:25:57;2;1;
49462;PMS5003;35357;51.722;0.500;2023-09-19T05:28:24;2;1;
49462;PMS5003;35357;51.722;0.500;2023-09-19T05:30:52;2;2;
49462;PMS5003;35357;51.722;0.500;2023-09-19T05:33:18;3;2;
49462;PMS5003;35357;51.722;0.500;2023-09-19T05:35:47;3;2;
49462;PMS5003;35357;51.722;0.500;2023-09-19T05:38:15;4;3;
49462;PMS5003;35357;51.722;0.500;2023-09-19T05:40:41;2;1;
49462;PMS5003;35357;51.722;0.500;2023-09-19T05:43:08;3;3;
49462;PMS5003;35357;51.722;0.500;2023-09-19T05:45:36;3;3;
49462;PMS5003;35357;51.722;0.500;2023-09-19T05:48:07;1;1;
49462;PMS5003;35357;51.722;0.500;2023-09-19T05:50:35;2;1;
49462;PMS5003;35357;51.722;0.500;2023-09-19T05:53:02;2;1;
49462;PMS5003;35357;51.722;0.500;2023-09-19T05:55:30;2;2;
49462;PMS5003;35357;51.722;0.500;2023-09-19T05:57:56;2;2;
49462;PMS5003;35357;51.722;0.500;2023-09-19T06:00:24;3;2;
49462;PMS5003;35357;51.722;0.500;2023-09-19T06:02:52;3;2;
49462;PMS5003;35357;51.722;0.500;2023-09-19T06:05:20;3;2;
49462;PMS5003;35357;51.722;0.500;2023-09-19T06:07:47;5;5;
49462;PMS5003;35357;51.722;0.500;2023-09-19T06:10:14;1;1;
49462;PMS5003;35357;51.722;0.500;2023-09-19T06:12:41;2;2;
49462;PMS5003;35357;51.722;0.500;2023-09-19T06:15:10;3;2;
49462;PMS5003;35357;51.722;0.500;2023-09-19T06:17:38;2;2;
49462;PMS5003;35357;51.722;0.500;2023-09-19T06:20:05;5;5;
49462;PMS5003;35357;51.722;0.500;2023-09-19T06:22:33;3;3;
49462;PMS5003;35357;51.722;0.500;2023-09-19T06:25:01;5;3;
49462;PMS5003;35357;51.722;0.500;2023-09-19T06:27:28;3;2;
49462;PMS5003;35357;51.722;0.500;2023-09-19T06:29:55;6;5;
49462;PMS5003;35357;51.722;0.500;2023-09-19T06:32:26;2;2;
49462;PMS5003;35357;51.722;0.500;2023-09-19T06:34:53;4;4;
49462;PMS5003;35357;51.722;0.500;2023-09-19T06:37:20;1;1;
49462;PMS5003;35357;51.722;0.500;2023-09-19T06:39:48;4;3;
49462;PMS5003;35357;51.722;0.500;2023-09-19T06:42:14;3;3;
49462;PMS5003;35357;51.722;0.500;2023-09-19T06:44:43;2;2;
49462;PMS5003;35357;51.722;0.500;2023-09-19T06:47:10;2;2;
49462;PMS5003;35357;51.722;0.500;2023-09-19T06:49:37;3;3;
49462;PMS5003;35357;51.722;0.500;2023-09-19T06:52:04;4;3;
49462;PMS5003;35357;51.722;0.500;2023-09-19T06:54:31;3;3;
49462;PMS5003;35357;51.722;0.500;2023-09-19T06:56:58;2;2;
49462;PMS5003;35357;51.722;0.500;2023-09-19T06:59:25;1;1;
49462;PMS5003;35357;51.722;0.500;2023-09-19T07:01:52;3;3;
49462;PMS5003;35357;51.722;0.500;2023-09-19T07:04:19;1;1;
49462;PMS5003;35357;51.722;0.500;2023-09-19T07:06:49;1;1;
49462;PMS5003;35357;51.722;0.500;2023-09-19T07:09:16;3;2;
49462;PMS5003;35357;51.722;0.500;2023-09-19T07:11:44;2;2;
49462;PMS5003;35357;51.722;0.500;2023-09-19T07:14:10;0;0;
49462;PMS5003;35357;51.722;0.500;2023-09-19T07:16:37;1;1;
49462;PMS5003;35357;51.722;0.500;2023-09-19T07:19:04;1;1;
49462;PMS5003;35357;51.722;0.500;2023-09-19T07:21:31;3;3;
49462;PMS5003;35357;51.722;0.500;2023-09-19T07:23:59;1;0;
49462;PMS5003;35357;51.722;0.500;2023-09-19T07:26:27;2;1;
49462;PMS5003;35357;51.722;0.500;2023-09-19T07:28:53;2;2;
49462;PMS5003;35357;51.722;0.500;2023-09-19T07:31:20;2;2;
49462;PMS5003;35357;51.722;0.500;2023-09-19T07:33:47;2;1;
49462;PMS5003;35357;51.722;0.500;2023-09-19T07:36:13;2;1;
49462;PMS5003;35357;51.722;0.500;2023-09-19T07:38:41;3;2;
49462;PMS5003;35357;51.722;0.500;2023-09-19T07:41:08;1;0;
49462;PMS5003;35357;51.722;0.500;2023-09-19T07:43:35;1;1;
49462;PMS5003;35357;51.722;0.500;2023-09-19T07:46:04;2;2;
49462;PMS5003;35357;51.722;0.500;2023-09-19T07:48:31;2;2;
49462;PMS5003;35357;51.722;0.500;2023-09-19T07:51:01;0;0;
49462;PMS5003;35357;51.722;0.500;2023-09-19T07:53:29;2;2;
49462;PMS5003;35357;51.722;0.500;2023-09-19T07:56:01;0;0;
49462;PMS5003;35357;51.722;0.500;2023-09-19T07:58:29;2;2;
49462;PMS5003;35357;51.722;0.500;2023-09-19T08:00:55;1;1;
49462;PMS5003;35357;51.722;0.500;2023-09-19T08:03:22;2;1;
49462;PMS5003;35357;51.722;0.500;2023-09-19T08:05:49;2;1;
49462;PMS5003;35357;51.722;0.500;2023-09-19T08:08:16;1;1;
49462;PMS5003;35357;51.722;0.500;2023-09-19T08:10:42;2;2;
49462;PMS5003;35357;51.722;0.500;2023-09-19T08:13:10;2;2;
49462;PMS5003;35357;51.722;0.500;2023-09-19T08:15:37;2;2;
49462;PMS5003;35357;51.722;0.500;2023-09-19T08:18:09;3;3;
49462;PMS5003;35357;51.722;0.500;2023-09-19T08:20:36;2;1;
49462;PMS5003;35357;51.722;0.500;2023-09-19T08:23:03;3;2;
49462;PMS5003;35357;51.722;0.500;2023-09-19T08:25:30;2;1;
49462;PMS5003;35357;51.722;0.500;2023-09-19T08:27:57;3;3;
49462;PMS5003;35357;51.722;0.500;2023-09-19T08:30:24;3;3;
49462;PMS5003;35357;51.722;0.500;2023-09-19T08:32:51;2;2;
49462;PMS5003;35357;51.722;0.500;2023-09-19T08:35:23;3;3;
49462;PMS5003;35357;51.722;0.500;2023-09-19T08:37:50;3;3;
49462;PMS5003;35357;51.722;0.500;2023-09-19T08:40:17;3;3;
49462;PMS5003;35357;51.722;0.500;2023-09-19T08:42:47;2;2;
49462;PMS5003;35357;51.722;0.500;2023-09-19T08:45:15;3;3;
49462;PMS5003;35357;51.722;0.500;2023-09-19T08:47:45;2;2;
49462;PMS5003;35357;51.722;0.500;2023-09-19T08:50:18;3;3;
49462;PMS5003;35357;51.722;0.500;2023-09-19T08:52:51;3;2;
49462;PMS5003;35357;51.722;0.500;2023-09-19T08:55:20;5;5;
49462;PMS5003;35357;51.722;0.500;2023-09-19T08:57:55;4;3;
49462;PMS5003;35357;51.722;0.500;2023-09-19T09:00:27;3;3;
49462;PMS5003;35357;51.722;0.500;2023-09-19T09:02:55;4;3;
49462;PMS5003;35357;51.722;0.500;2023-09-19T09:05:24;4;3;
49462;PMS5003;35357;51.722;0.500;2023-09-19T09:07:53;5;4;
49462;PMS5003;35357;51.722;0.500;2023-09-19T09:10:20;4;4;
49462;PMS5003;35357;51.722;0.500;2023-09-19T09:12:48;3;3;
49462;PMS5003;35357;51.722;0.500;2023-09-19T09:15:19;5;4;
49462;PMS5003;35357;51.722;0.500;2023-09-19T09:17:47;3;3;
49462;PMS5003;35357;51.722;0.500;2023-09-19T09:20:15;6;5;
49462;PMS5003;35357;51.722;0.500;2023-09-19T09:22:50;4;4;
49462;PMS5003;35357;51.722;0.500;2023-09-19T09:25:18;5;5;
49462;PMS5003;35357;51.722;0.500;2023-09-19T09:27:46;6;5;
49462;PMS5003;35357;51.722;0.500;2023-09-19T09:30:32;6;5;
49462;PMS5003;35357;51.722;0.500;2023-09-19T09:33:07;6;6;
49462;PMS5003;35357;51.722;0.500;2023-09-19T09:35:36;4;4;
49462;PMS5003;35357;51.722;0.500;2023-09-19T09:38:03;3;3;
49462;PMS5003;35357;51.722;0.500;2023-09-19T09:40:34;7;6;
49462;PMS5003;35357;51.722;0.500;2023-09-19T09:43:24;7;7;
49462;PMS5003;35357;51.722;0.500;2023-09-19T09:46:05;6;5;
49462;PMS5003;35357;51.722;0.500;2023-09-19T09:48:36;4;4;
49462;PMS5003;35357;51.722;0.500;2023-09-19T09:51:03;6;6;
49462;PMS5003;35357;51.722;0.500;2023-09-19T09:53:30;6;5;
49462;PMS5003;35357;51.722;0.500;2023-09-19T09:55:58;5;5;
49462;PMS5003;35357;51.722;0.500;2023-09-19T09:58:28;7;7;
49462;PMS5003;35357;51.722;0.500;2023-09-19T10:00:55;6;6;
49462;PMS5003;35357;51.722;0.500;2023-09-19T10:03:30;7;5;
49462;PMS5003;35357;51.722;0.500;2023-09-19T10:05:59;7;6;
49462;PMS5003;35357;51.722;0.500;2023-09-19T10:08:27;7;6;
49462;PMS5003;35357;51.722;0.500;2023-09-19T10:10:54;7;6;
49462;PMS5003;35357;51.722;0.500;2023-09-19T10:13:21;6;6;
49462;PMS5003;35357;51.722;0.500;2023-09-19T10:15:52;9;8;
49462;PMS5003;35357;51.722;0.500;2023-09-19T10:18:20;7;6;
49462;PMS5003;35357;51.722;0.500;2023-09-19T10:20:49;8;6;
49462;PMS5003;35357;51.722;0.500;2023-09-19T10:23:17;6;5;
49462;PMS5003;35357;51.722;0.500;2023-09-19T10:25:45;7;7;
49462;PMS5003;35357;51.722;0.500;2023-09-19T10:28:14;5;5;
49462;PMS5003;35357;51.722;0.500;2023-09-19T10:30:43;7;7;
49462;PMS5003;35357;51.722;0.500;2023-09-19T10:33:12;6;5;
49462;PMS5003;35357;51.722;0.500;2023-09-19T10:35:42;7;7;
49462;PMS5003;35357;51.722;0.500;2023-09-19T10:38:11;5;4;
49462;PMS5003;35357;51.722;0.500;2023-09-19T10:40:39;10;9;
49462;PMS5003;35357;51.722;0.500;2023-09-19T10:43:07;7;7;
49462;PMS5003;35357;51.722;0.500;2023-09-19T10:45:39;6;6;
49462;PMS5003;35357;51.722;0.500;2023-09-19T10:48:07;6;6;
49462;PMS5003;35357;51.722;0.500;2023-09-19T10:50:37;6;6;
49462;PMS5003;35357;51.722;0.500;2023-09-19T10:53:11;9;8;
49462;PMS5003;35357;51.722;0.500;2023-09-19T10:55:39;10;8;
49462;PMS5003;35357;51.722;0.500;2023-09-19T10:58:07;8;7;
49462;PMS5003;35357;51.722;0.500;2023-09-19T11:00:49;8;8;
49462;PMS5003;35357;51.722;0.500;2023-09-19T11:03:18;6;6;
49462;PMS5003;35357;51.722;0.500;2023-09-19T11:06:00;7;7;
49462;PMS5003;35357;51.722;0.500;2023-09-19T11:08:30;8;8;
49462;PMS5003;35357;51.722;0.500;2023-09-19T11:10:58;6;5;
49462;PMS5003;35357;51.722;0.500;2023-09-19T11:13:25;7;6;
49462;PMS5003;35357;51.722;0.500;2023-09-19T11:16:05;8;8;
49462;PMS5003;35357;51.722;0.500;2023-09-19T11:19:04;6;6;
49462;PMS5003;35357;51.722;0.500;2023-09-19T11:21:41;8;7;
49462;PMS5003;35357;51.722;0.500;2023-09-19T11:24:27;5;5;
49462;PMS5003;35357;51.722;0.500;2023-09-19T11:27:09;9;8;
49462;PMS5003;35357;51.722;0.500;2023-09-19T11:29:37;7;7;
49462;PMS5003;35357;51.722;0.500;2023-09-19T11:32:04;7;7;
49462;PMS5003;35357;51.722;0.500;2023-09-19T11:34:47;6;5;
49462;PMS5003;35357;51.722;0.500;2023-09-19T11:38:19;6;6;
49462;PMS5003;35357;51.722;0.500;2023-09-19T11:41:40;6;6;
49462;PMS5003;35357;51.722;0.500;2023-09-19T11:44:40;8;8;
49462;PMS5003;35357;51.722;0.500;2023-09-19T11:47:07;4;4;
49462;PMS5003;35357;51.722;0.500;2023-09-19T11:49:38;6;6;
49462;PMS5003;35357;51.722;0.500;2023-09-19T11:52:07;6;6;
49462;PMS5003;35357;51.722;0.500;2023-09-19T11:54:35;6;6;
49462;PMS5003;35357;51.722;0.500;2023-09-19T11:57:03;7;7;
49462;PMS5003;35357;51.722;0.500;2023-09-19T11:59:31;5;5;
49462;PMS5003;35357;51.722;0.500;2023-09-19T12:01:58;5;5;
49462;PMS5003;35357;51.722;0.500;2023-09-19T12:04:33;6;6;
49462;PMS5003;35357;51.722;0.500;2023-09-19T12:07:02;9;9;
49462;PMS5003;35357;51.722;0.500;2023-09-19T12:09:30;6;6;
49462;PMS5003;35357;51.722;0.500;2023-09-19T12:11:57;8;8;
49462;PMS5003;35357;51.722;0.500;2023-09-19T12:14:25;5;4;
49462;PMS5003;35357;51.722;0.500;2023-09-19T12:16:53;6;6;
49462;PMS5003;35357;51.722;0.500;2023-09-19T12:19:21;6;5;
49462;PMS5003;35357;51.722;0.500;2023-09-19T12:21:54;7;6;
49462;PMS5003;35357;51.722;0.500;2023-09-19T12:24:26;6;6;
49462;PMS5003;35357;51.722;0.500;2023-09-19T12:26:54;5;5;
49462;PMS5003;35357;51.722;0.500;2023-09-19T12:29:26;6;6;
49462;PMS5003;35357;51.722;0.500;2023-09-19T12:31:54;8;8;
49462;PMS5003;35357;51.722;0.500;2023-09-19T12:34:22;8;7;
49462;PMS5003;35357;51.722;0.500;2023-09-19T12:37:01;6;6;
49462;PMS5003;35357;51.722;0.500;2023-09-19T12:39:30;9;8;
49462;PMS5003;35357;51.722;0.500;2023-09-19T12:41:57;5;4;
49462;PMS5003;35357;51.722;0.500;2023-09-19T12:44:24;6;5;
49462;PMS5003;35357;51.722;0.500;2023-09-19T12:46:52;11;10;
49462;PMS5003;35357;51.722;0.500;2023-09-19T12:49:19;6;6;
49462;PMS5003;35357;51.722;0.500;2023-09-19T12:51:48;6;5;
49462;PMS5003;35357;51.722;0.500;2023-09-19T12:54:15;4;4;
49462;PMS5003;35357;51.722;0.500;2023-09-19T12:56:43;6;6;
49462;PMS5003;35357;51.722;0.500;2023-09-19T12:59:12;6;6;
49462;PMS5003;35357;51.722;0.500;2023-09-19T13:01:41;5;5;
49462;PMS5003;35357;51.722;0.500;2023-09-19T13:04:11;6;5;
49462;PMS5003;35357;51.722;0.500;2023-09-19T13:06:38;6;4;
49462;PMS5003;35357;51.722;0.500;2023-09-19T13:09:07;9;7;
49462;PMS5003;35357;51.722;0.500;2023-09-19T13:11:35;7;7;
49462;PMS5003;35357;51.722;0.500;2023-09-19T13:14:20;7;7;
49462;PMS5003;35357;51.722;0.500;2023-09-19T13:16:57;9;9;
49462;PMS5003;35357;51.722;0.500;2023-09-19T13:19:42;6;6;
49462;PMS5003;35357;51.722;0.500;2023-09-19T13:22:43;5;5;
49462;PMS5003;35357;51.722;0.500;2023-09-19T13:25:12;6;6;
49462;PMS5003;35357;51.722;0.500;2023-09-19T13:27:41;6;6;
49462;PMS5003;35357;51.722;0.500;2023-09-19T13:30:10;7;6;
49462;PMS5003;35357;51.722;0.500;2023-09-19T13:32:38;5;4;
49462;PMS5003;35357;51.722;0.500;2023-09-19T13:35:05;6;6;
49462;PMS5003;35357;51.722;0.500;2023-09-19T13:37:32;7;6;
49462;PMS5003;35357;51.722;0.500;2023-09-19T13:40:00;5;5;
49462;PMS5003;35357;51.722;0.500;2023-09-19T13:42:26;6;6;
49462;PMS5003;35357;51.722;0.500;2023-09-19T13:44:53;6;5;
49462;PMS5003;35357;51.722;0.500;2023-09-19T13:47:20;5;4;
49462;PMS5003;35357;51.722;0.500;2023-09-19T13:49:46;5;5;
49462;PMS5003;35357;51.722;0.500;2023-09-19T13:52:13;3;3;
49462;PMS5003;35357;51.722;0.500;2023-09-19T13:54:41;6;6;
49462;PMS5003;35357;51.722;0.500;2023-09-19T13:57:08;7;6;
49462;PMS5003;35357;51.722;0.500;2023-09-19T13:59:35;4;4;
49462;PMS5003;35357;51.722;0.500;2023-09-19T14:02:02;6;6;
49462;PMS5003;35357;51.722;0.500;2023-09-19T14:04:29;5;5;
49462;PMS5003;35357;51.722;0.500;2023-09-19T14:06:56;5;5;
49462;PMS5003;35357;51.722;0.500;2023-09-19T14:09:24;5;5;
49462;PMS5003;35357;51.722;0.500;2023-09-19T14:11:51;7;6;
49462;PMS5003;35357;51.722;0.500;2023-09-19T14:14:19;4;4;
49462;PMS5003;35357;51.722;0.500;2023-09-19T14:16:46;4;4;
49462;PMS5003;35357;51.722;0.500;2023-09-19T14:19:13;5;5;
49462;PMS5003;35357;51.722;0.500;2023-09-19T14:21:41;6;6;
49462;PMS5003;35357;51.722;0.500;2023-09-19T14:24:08;3;3;
49462;PMS5003;35357;51.722;0.500;2023-09-19T14:26:36;5;5;
49462;PMS5003;35357;51.722;0.500;2023-09-19T14:29:03;7;7;
49462;PMS5003;35357;51.722;0.500;2023-09-19T14:31:32;5;4;
49462;PMS5003;35357;51.722;0.500;2023-09-19T14:33:58;5;5;
49462;PMS5003;35357;51.722;0.500;2023-09-19T14:36:26;3;3;
49462;PMS5003;35357;51.722;0.500;2023-09-19T14:38:53;3;3;
49462;PMS5003;35357;51.722;0.500;2023-09-19T14:41:21;5;4;
49462;PMS5003;35357;51.722;0.500;2023-09-19T14:43:49;3;3;
49462;PMS5003;35357;51.722;0.500;2023-09-19T14:46:15;4;3;
49462;PMS5003;35357;51.722;0.500;2023-09-19T14:48:42;4;4;
49462;PMS5003;35357;51.722;0.500;2023-09-19T14:51:09;5;5;
49462;PMS5003;35357;51.722;0.500;2023-09-19T14:53:36;5;5;
49462;PMS5003;35357;51.722;0.500;2023-09-19T14:56:03;7;6;
49462;PMS5003;35357;51.722;0.500;2023-09-19T14:58:31;6;6;
49462;PMS5003;35357;51.722;0.500;2023-09-19T15:01:03;6;5;
49462;PMS5003;35357;51.722;0.500;2023-09-19T15:03:31;4;3;
49462;PMS5003;35357;51.722;0.500;2023-09-19T15:05:59;2;2;
49462;PMS5003;35357;51.722;0.500;2023-09-19T15:08:26;2;2;
49462;PMS5003;35357;51.722;0.500;2023-09-19T15:10:54;6;5;
49462;PMS5003;35357;51.722;0.500;2023-09-19T15:13:20;4;3;
49462;PMS5003;35357;51.722;0.500;2023-09-19T15:15:47;4;4;
49462;PMS5003;35357;51.722;0.500;2023-09-19T15:18:14;5;5;
49462;PMS5003;35357;51.722;0.500;2023-09-19T15:20:42;6;5;
49462;PMS5003;35357;51.722;0.500;2023-09-19T15:23:10;4;4;
49462;PMS5003;35357;51.722;0.500;2023-09-19T15:25:36;3;3;
49462;PMS5003;35357;51.722;0.500;2023-09-19T15:28:03;2;2;
49462;PMS5003;35357;51.722;0.500;2023-09-19T15:30:31;3;3;
49462;PMS5003;35357;51.722;0.500;2023-09-19T15:32:57;2;2;
49462;PMS5003;35357;51.722;0.500;2023-09-19T15:35:24;2;2;
49462;PMS5003;35357;51.722;0.500;2023-09-19T15:37:52;1;1;
49462;PMS5003;35357;51.722;0.500;2023-09-19T15:40:18;3;3;
49462;PMS5003;35357;51.722;0.500;2023-09-19T15:42:45;3;3;
49462;PMS5003;35357;51.722;0.500;2023-09-19T15:45:12;2;2;
49462;PMS5003;35357;51.722;0.500;2023-09-19T15:47:38;3;2;
49462;PMS5003;35357;51.722;0.500;2023-09-19T15:50:05;3;3;
49462;PMS5003;35357;51.722;0.500;2023-09-19T15:52:33;3;3;
49462;PMS5003;35357;51.722;0.500;2023-09-19T15:55:00;3;3;
49462;PMS5003;35357;51.722;0.500;2023-09-19T15:57:29;4;3;
49462;PMS5003;35357;51.722;0.500;2023-09-19T15:59:56;3;3;
49462;PMS5003;35357;51.722;0.500;2023-09-19T16:02:23;2;2;
49462;PMS5003;35357;51.722;0.500;2023-09-19T16:04:49;3;3;
49462;PMS5003;35357;51.722;0.500;2023-09-19T16:07:16;4;3;
49462;PMS5003;35357;51.722;0.500;2023-09-19T16:09:44;4;4;
49462;PMS5003;35357;51.722;0.500;2023-09-19T16:12:10;4;3;
49462;PMS5003;35357;51.722;0.500;2023-09-19T16:14:38;3;2;
49462;PMS5003;35357;51.722;0.500;2023-09-19T16:17:05;1;0;
49462;PMS5003;35357;51.722;0.500;2023-09-19T16:19:31;2;2;
49462;PMS5003;35357;51.722;0.500;2023-09-19T16:21:58;2;2;
49462;PMS5003;35357;51.722;0.500;2023-09-19T16:24:25;3;3;
49462;PMS5003;35357;51.722;0.500;2023-09-19T16:26:51;2;1;
49462;PMS5003;35357;51.722;0.500;2023-09-19T16:29:18;2;2;
49462;PMS5003;35357;51.722;0.500;2023-09-19T16:31:46;2;2;
49462;PMS5003;35357;51.722;0.500;2023-09-19T16:34:12;3;3;
49462;PMS5003;35357;51.722;0.500;2023-09-19T16:36:40;3;3;
49462;PMS5003;35357;51.722;0.500;2023-09-19T16:39:07;3;2;
49462;PMS5003;35357;51.722;0.500;2023-09-19T16:41:33;4;2;
49462;PMS5003;35357;51.722;0.500;2023-09-19T16:44:01;4;3;
49462;PMS5003;35357;51.722;0.500;2023-09-19T16:46:29;3;3;
49462;PMS5003;35357;51.722;0.500;2023-09-19T16:48:56;3;3;
49462;PMS5003;35357;51.722;0.500;2023-09-19T16:51:22;3;3;
49462;PMS5003;35357;51.722;0.500;2023-09-19T16:53:49;3;3;
49462;PMS5003;35357;51.722;0.500;2023-09-19T16:56:16;2;2;
49462;PMS5003;35357;51.722;0.500;2023-09-19T16:58:43;3;3;
49462;PMS5003;35357;51.722;0.500;2023-09-19T17:01:11;3;3;
49462;PMS5003;35357;51.722;0.500;2023-09-19T17:03:40;3;3;